createdAt,value
2023-03-04T00:01:54.993Z,1.28
2023-03-04T00:06:57.555Z,1.30
2023-03-04T00:11:59.715Z,1.25
2023-03-04T00:17:03.706Z,1.19
2023-03-04T00:22:05.428Z,1.17
2023-03-04T00:27:07.090Z,1.15
2023-03-04T00:32:08.971Z,1.12
2023-03-04T00:37:10.668Z,1.13
2023-03-04T00:42:12.272Z,1.21
2023-03-04T00:47:13.942Z,1.32
2023-03-04T00:52:15.806Z,1.37
2023-03-04T00:57:17.409Z,1.29
2023-03-04T01:02:19.176Z,1.26
2023-03-04T01:07:21.086Z,1.21
2023-03-04T01:12:22.716Z,1.12
2023-03-04T01:17:24.346Z,0.98
2023-03-04T01:22:26.043Z,0.76
2023-03-04T01:27:27.620Z,0.59
2023-03-04T01:32:29.360Z,0.57
2023-03-04T01:37:31.204Z,0.50
2023-03-04T01:42:35.963Z,0.44
2023-03-04T01:47:37.622Z,0.41
2023-03-04T01:52:41.125Z,0.34
2023-03-04T01:57:43.083Z,0.34
2023-03-04T02:02:44.910Z,0.27
2023-03-04T02:07:46.558Z,0.24
2023-03-04T02:12:48.577Z,0.27
2023-03-04T02:17:50.797Z,0.24
2023-03-04T02:22:57.622Z,0.19
2023-03-04T02:27:59.336Z,0.22
2023-03-04T02:33:01.168Z,0.18
2023-03-04T02:38:02.790Z,0.11
2023-03-04T02:43:04.565Z,0.11
2023-03-04T02:48:07.127Z,0.05
2023-03-04T02:53:09.303Z,0.00
2023-03-04T02:58:12.095Z,-0.06
2023-03-04T03:03:13.946Z,-0.10
2023-03-04T03:08:17.105Z,-0.15
2023-03-04T03:13:19.255Z,-0.16
2023-03-04T03:18:21.266Z,-0.19
2023-03-04T03:23:22.974Z,-0.21
2023-03-04T03:28:24.699Z,-0.26
2023-03-04T03:33:26.505Z,-0.34
2023-03-04T03:38:28.369Z,-0.44
2023-03-04T03:43:29.981Z,-0.63
2023-03-04T03:48:31.594Z,-0.75
2023-03-04T03:53:33.211Z,-0.68
2023-03-04T03:58:34.926Z,-0.66
2023-03-04T04:03:36.743Z,-0.67
2023-03-04T04:08:38.548Z,-0.70
2023-03-04T04:13:40.137Z,-0.72
2023-03-04T04:18:41.768Z,-0.73
2023-03-04T04:23:43.457Z,-0.67
2023-03-04T04:28:45.080Z,-0.68
2023-03-04T04:33:46.665Z,-0.72
2023-03-04T04:38:49.389Z,-0.77
2023-03-04T04:43:51.426Z,-0.80
2023-03-04T04:48:53.029Z,-0.76
2023-03-04T04:53:54.698Z,-0.80
2023-03-04T04:59:00.384Z,-0.88
2023-03-04T05:04:02.082Z,-1.00
2023-03-04T05:09:04.451Z,-1.10
2023-03-04T05:14:06.225Z,-1.09
2023-03-04T05:19:07.862Z,-1.09
2023-03-04T05:24:09.565Z,-1.05
2023-03-04T05:29:11.228Z,-1.08
2023-03-04T05:34:12.808Z,-1.09
2023-03-04T05:39:14.464Z,-1.13
2023-03-04T05:44:16.091Z,-1.16
2023-03-04T05:49:18.023Z,-1.23
2023-03-04T05:54:19.829Z,-1.20
2023-03-04T05:59:21.439Z,-1.15
2023-03-04T06:04:23.062Z,-1.07
2023-03-04T06:09:24.879Z,-1.02
2023-03-04T06:14:26.786Z,-0.96
2023-03-04T06:19:28.454Z,-0.77
2023-03-04T06:24:30.092Z,-0.69
2023-03-04T06:29:32.067Z,-0.53
2023-03-04T06:34:33.849Z,-0.41
2023-03-04T06:39:35.467Z,-0.32
2023-03-04T06:44:37.482Z,-0.22
2023-03-04T06:49:39.660Z,-0.19
2023-03-04T06:54:41.253Z,-0.26
2023-03-04T06:59:42.892Z,-0.24
2023-03-04T07:04:44.568Z,-0.23
2023-03-04T07:09:46.312Z,-0.23
2023-03-04T07:14:47.931Z,-0.19
2023-03-04T07:19:49.665Z,-0.25
2023-03-04T07:24:51.340Z,-0.09
2023-03-04T07:29:53.016Z,0.17
2023-03-04T07:34:54.684Z,0.52
2023-03-04T07:39:56.313Z,0.82
2023-03-04T07:44:59.629Z,1.11
2023-03-04T07:50:01.323Z,1.44
2023-03-04T07:55:03.342Z,1.73
2023-03-04T08:00:05.543Z,2.06
2023-03-04T08:05:13.940Z,2.41
2023-03-04T08:10:15.886Z,2.71
2023-03-04T08:15:17.676Z,2.98
2023-03-04T08:20:19.434Z,3.20
2023-03-04T08:25:21.778Z,3.40
2023-03-04T08:30:23.524Z,3.64
2023-03-04T08:35:25.230Z,3.97
2023-03-04T08:40:27.267Z,4.29
2023-03-04T08:45:29.020Z,4.72
2023-03-04T08:50:30.650Z,5.15
2023-03-04T08:55:32.664Z,7.00
2023-03-04T09:00:36.195Z,7.75
2023-03-04T09:05:39.059Z,8.19
2023-03-04T09:10:41.192Z,8.44
2023-03-04T09:15:48.029Z,8.73
2023-03-04T09:20:50.225Z,8.93
2023-03-04T09:25:51.917Z,9.16
2023-03-04T09:30:53.756Z,9.32
2023-03-04T09:35:55.492Z,9.43
2023-03-04T09:40:59.236Z,9.61
2023-03-04T09:46:07.020Z,9.73
2023-03-04T09:51:32.856Z,9.83
2023-03-04T09:56:37.923Z,9.99
2023-03-04T10:01:51.397Z,10.11
2023-03-04T10:06:54.505Z,10.31
2023-03-04T10:12:06.253Z,10.36
2023-03-04T10:17:34.654Z,10.47
2023-03-04T10:22:46.470Z,10.59
2023-03-04T10:28:05.033Z,10.73
2023-03-04T10:33:18.878Z,10.77
2023-03-04T10:38:22.504Z,11.03
2023-03-04T10:43:24.822Z,11.20
2023-03-04T10:48:31.464Z,11.31
2023-03-04T10:53:41.040Z,11.36
2023-03-04T10:58:43.845Z,11.70
2023-03-04T11:03:49.421Z,11.61
2023-03-04T11:08:56.382Z,11.51
2023-03-04T11:14:02.673Z,11.87
2023-03-04T11:19:11.003Z,12.00
2023-03-04T11:24:28.355Z,12.08
2023-03-04T11:29:52.225Z,12.27
2023-03-04T11:35:07.727Z,12.40
2023-03-04T11:40:23.867Z,12.64
2023-03-04T11:46:05.604Z,12.89
2023-03-04T11:51:13.063Z,12.91
2023-03-04T11:56:33.251Z,13.12
2023-03-04T12:01:51.960Z,13.09
2023-03-04T12:06:56.512Z,13.35
2023-03-04T12:12:21.319Z,13.46
2023-03-04T12:17:41.266Z,13.62
2023-03-04T12:22:50.006Z,13.63
2023-03-04T12:28:21.208Z,13.70
2023-03-04T12:33:44.264Z,13.94
2023-03-04T12:39:21.439Z,13.93
2023-03-04T12:44:23.551Z,13.98
2023-03-04T12:49:35.520Z,14.14
2023-03-04T12:54:50.656Z,13.85
2023-03-04T13:00:48.239Z,13.66
2023-03-04T13:06:08.398Z,13.68
2023-03-04T13:11:33.977Z,13.95
2023-03-04T13:16:38.589Z,13.82
2023-03-04T13:21:47.977Z,13.89
2023-03-04T13:26:49.564Z,14.03
2023-03-04T13:32:36.869Z,13.84
2023-03-04T13:37:57.648Z,13.79
2023-03-04T13:43:26.926Z,13.66
2023-03-04T13:48:36.426Z,13.37
2023-03-04T13:53:39.953Z,13.23
2023-03-04T13:58:42.110Z,13.14
2023-03-04T14:03:44.934Z,13.39
2023-03-04T14:08:47.528Z,13.15
2023-03-04T14:13:49.412Z,13.24
2023-03-04T14:19:21.805Z,11.36
2023-03-04T14:24:24.436Z,11.14
2023-03-04T14:29:29.394Z,9.99
2023-03-04T14:34:37.385Z,10.03
2023-03-04T14:39:39.158Z,9.71
2023-03-04T14:44:49.213Z,9.39
2023-03-04T14:49:51.318Z,8.95
2023-03-04T14:55:17.613Z,8.59
2023-03-04T15:00:21.980Z,8.77
2023-03-04T15:05:26.503Z,8.45
2023-03-04T15:10:37.324Z,8.45
2023-03-04T15:15:46.896Z,8.28
2023-03-04T15:21:02.922Z,8.29
2023-03-04T15:26:05.935Z,8.29
2023-03-04T15:31:16.308Z,8.08
2023-03-04T15:36:23.212Z,7.87
2023-03-04T15:41:26.367Z,8.02
2023-03-04T15:46:28.009Z,7.87
2023-03-04T15:51:30.050Z,7.71
2023-03-04T15:56:33.922Z,7.34
2023-03-04T16:01:35.836Z,7.27
2023-03-04T16:06:37.588Z,7.12
2023-03-04T16:11:43.828Z,7.01
2023-03-04T16:16:46.923Z,6.96
2023-03-04T16:21:48.667Z,6.83
2023-03-04T16:26:50.505Z,6.63
2023-03-04T16:31:54.253Z,6.49
2023-03-04T16:36:55.865Z,6.40
2023-03-04T16:41:57.541Z,6.16
2023-03-04T16:46:59.232Z,6.00
2023-03-04T16:52:01.182Z,5.81
2023-03-04T16:57:03.097Z,5.77
2023-03-04T17:02:12.889Z,5.50
2023-03-04T17:07:14.617Z,5.37
2023-03-04T17:12:16.232Z,5.25
2023-03-04T17:17:18.567Z,5.24
2023-03-04T17:22:20.197Z,5.11
2023-03-04T17:27:21.834Z,5.02
2023-03-04T17:32:23.639Z,4.90
2023-03-04T17:37:25.917Z,4.91
2023-03-04T17:42:27.509Z,4.80
2023-03-04T17:47:29.298Z,4.74
2023-03-04T17:52:31.099Z,4.69
2023-03-04T17:57:36.371Z,4.63
2023-03-04T18:02:37.969Z,4.38
2023-03-04T18:07:39.839Z,4.40
2023-03-04T18:12:41.436Z,4.26
2023-03-04T18:17:45.339Z,4.12
2023-03-04T18:22:46.977Z,4.11
2023-03-04T18:27:48.616Z,4.12
2023-03-04T18:32:52.456Z,4.18
2023-03-04T18:37:54.307Z,3.94
2023-03-04T18:42:57.112Z,3.64
2023-03-04T18:47:59.496Z,3.62
2023-03-04T18:53:01.255Z,3.55
2023-03-04T18:58:04.459Z,3.16
2023-03-04T19:03:10.016Z,3.13
2023-03-04T19:08:12.009Z,3.09
2023-03-04T19:13:15.761Z,3.10
2023-03-04T19:18:17.716Z,3.10
2023-03-04T19:23:19.461Z,3.07
2023-03-04T19:33:22.814Z,2.93
2023-03-04T19:38:24.441Z,2.89
2023-03-04T19:43:26.336Z,2.98
2023-03-04T19:48:28.104Z,2.92
2023-03-04T19:53:29.761Z,2.99
2023-03-04T19:58:31.349Z,3.13
2023-03-04T20:03:33.664Z,3.29
2023-03-04T20:08:38.368Z,3.43
2023-03-04T20:13:40.302Z,3.53
2023-03-04T20:18:43.170Z,3.62
2023-03-04T20:23:44.836Z,3.67
2023-03-04T20:28:46.438Z,3.70
2023-03-04T20:33:49.368Z,3.69
2023-03-04T20:38:57.986Z,3.67
2023-03-04T20:44:06.141Z,3.69
2023-03-04T20:49:16.640Z,3.72
2023-03-04T20:54:18.273Z,3.69
2023-03-04T20:59:19.886Z,3.69
2023-03-04T21:04:21.669Z,3.62
2023-03-04T21:09:23.556Z,3.65
2023-03-04T21:14:28.783Z,3.59
2023-03-04T21:19:32.925Z,3.59
2023-03-04T21:24:39.428Z,3.64
2023-03-04T21:29:41.052Z,3.73
2023-03-04T21:34:46.719Z,3.73
2023-03-04T21:39:48.462Z,3.81
2023-03-04T21:44:51.428Z,3.97
2023-03-04T21:49:53.446Z,4.08
2023-03-04T21:54:56.010Z,4.16
2023-03-04T21:59:57.654Z,4.15
2023-03-04T22:04:59.279Z,4.15
2023-03-04T22:10:03.038Z,4.14
2023-03-04T22:15:05.240Z,4.08
2023-03-04T22:20:07.268Z,3.91
2023-03-04T22:25:09.444Z,3.87
2023-03-04T22:30:11.999Z,3.67
2023-03-04T22:35:14.568Z,3.71
2023-03-04T22:40:16.402Z,3.81
2023-03-04T22:45:18.453Z,3.77
2023-03-04T22:50:21.890Z,3.72
2023-03-04T22:55:23.562Z,3.78
2023-03-04T23:00:27.367Z,3.78
2023-03-04T23:05:29.374Z,3.75
2023-03-04T23:10:31.241Z,3.77
2023-03-04T23:15:32.828Z,3.76
2023-03-04T23:20:34.483Z,3.74
2023-03-04T23:25:37.184Z,3.79
2023-03-04T23:30:38.862Z,3.78
2023-03-04T23:35:40.500Z,3.78
2023-03-04T23:40:42.305Z,3.76
2023-03-04T23:45:44.145Z,3.82
2023-03-04T23:50:51.364Z,3.85
2023-03-04T23:55:53.008Z,3.86
